Sponsor Message:
Civil Aviation Forum
My Starred Topics | Profile | New Topic | Forum Index | Help | Search 
FedEx Stuck In The Mud At CLT  
User currently offlineChiGB1973 From United States of America, joined Mar 2004, 1619 posts, RR: 1
Posted (9 years 1 week 4 days 17 hours ago) and read 5104 times:

Looks like an A-300, but I cannot be sure. Doesn't seem to be impeding traffic.

M

http://www.charlotte.com/mld/charlotte/living/travel/13413752.htm

[Edited 2005-12-15 14:40:51]

10 replies: All unread, jump to last
 
User currently offlineHAWK21M From India, joined Jan 2001, 31712 posts, RR: 56
Reply 1, posted (9 years 1 week 4 days 17 hours ago) and read 5089 times:

Any Update/Link on this.
regds
MEL



Think of the brighter side!
User currently offlineOPNLguy From , joined Dec 1969, posts, RR:
Reply 2, posted (9 years 1 week 4 days 16 hours ago) and read 4969 times:

Moderate freezing rain will do that...

KCLT 151422Z 04005KT 2 1/2SM FZRA BR OVC007 00/M01 A3002 RMK AO2 CIG 005V010 P0006
KCLT 151357Z 05006KT 3SM -FZRA BR OVC007 00/M01 A3003 RMK AO2 CIG 005V010 P0001
KCLT 151351Z 04005KT 2 1/2SM FZRA BR BKN007 OVC013 00/M01 A3003 RMK AO2 SLP172 P0020 T00001011
KCLT 151339Z 04007KT 2 1/2SM FZRA BR OVC007 00/M01 A3002 RMK AO2 CIG 005V013 P0016
KCLT 151256Z 05005KT 4SM -FZRA BR OVC007 00/M01 A3004 RMK AO2 CIG 005V011 P0002
KCLT 151251Z 04007KT 4SM FZRA BR OVC007 00/M01 A3004 RMK AO2 CIG 005V011 SLP176 P0011 T00001011
KCLT 151243Z VRB05KT 4SM FZRA BR OVC007 M01/M02 A3004 RMK AO2 CIG 005V009 P0009
KCLT 151159Z 05008KT 5SM -FZRA BR OVC007 M01/M02 A3006 RMK AO2 CIG 005V009 P0001
KCLT 151151Z 04007KT 4SM FZRA BR OVC007 M01/M02 A3007 RMK AO2 SLP186 931000 P0006 60035 70035 T10061017 10000 21011 58029
KCLT 151051Z 05007KT 5SM -FZRA BR OVC009 M01/M02 A3011 RMK AO2 SLP199 P0006 T10111022
KCLT 151018Z 04007KT 5SM -FZRA BR OVC009 M01/M03 A3012 RMK AO2 P0004
KCLT 150951Z 03009KT 5SM -FZRA BR SCT011 OVC020 M01/M03 A3014 RMK AO2 CIG 009 RWY 36 SLP210 P0010 T10111028
KCLT 150851Z 03007KT 7SM -FZRA BR OVC022 M01/M03 A3015 RMK AO2 SLP215 P0006 60013 T10111033 58026


User currently offlineUnited_fan From United States of America, joined Nov 2000, 7545 posts, RR: 7
Reply 3, posted (9 years 1 week 4 days 15 hours ago) and read 4862 times:

In ROC , twice in 2 days it happened last month. A300 or 310.


'Empathy was yesterday...Today, you're wasting my Mother-F'ing time' - Heat.
User currently offlineLtbewr From United States of America, joined Jan 2004, 13202 posts, RR: 16
Reply 4, posted (9 years 1 week 4 days 15 hours ago) and read 4814 times:

Apparently during taxing, the port side wheels slid into the mud along the side of the taxiway. Guess there will be some late packages today!. No people injured and hopefully, no or minor damage to the a/c.

User currently offlineCltguy From United States of America, joined Sep 2004, 598 posts, RR: 0
Reply 5, posted (9 years 1 week 4 days 14 hours ago) and read 4766 times:



Courtesy of WCNC

It has been a miserable day so far with freezing rain all night, trees have been falling due to the weight of the ice...but the roads are just wet...bridges and overpasses are slippery.


User currently offlineAviatorTJ From United States of America, joined Jul 2003, 1838 posts, RR: 7
Reply 6, posted (9 years 1 week 4 days 14 hours ago) and read 4713 times:

Has this plane been moved, and if not where can I find it from the terminal. I'm delayed and looking for something to do  Smile

User currently offlineCltguy From United States of America, joined Sep 2004, 598 posts, RR: 0
Reply 7, posted (9 years 1 week 4 days 13 hours ago) and read 4577 times:

I saw video on the recent noon news that the plane was removed from the mud...the pilot took the turn too sharp on the taxiway and ended up in the mud.

User currently offlineAndrewUber From United States of America, joined Jul 2003, 2528 posts, RR: 40
Reply 8, posted (9 years 1 week 4 days 12 hours ago) and read 4451 times:

Quoting Cltguy (Reply 5):
...but the roads are just wet...bridges and overpasses are slippery.

It seems that the ramps are slippery too!  bigthumbsup 



I'd rather shoot BAD_MOTIVE
User currently offlineLindy From , joined Dec 1969, posts, RR:
Reply 9, posted (9 years 1 week 4 days 12 hours ago) and read 4423 times:

Looks like its A300.

Rafal


User currently offlineHAWK21M From India, joined Jan 2001, 31712 posts, RR: 56
Reply 10, posted (9 years 1 week 3 days 22 hours ago) and read 4085 times:

Whats the Damage like.
regds
MEL



Think of the brighter side!
Top Of Page
Forum Index

This topic is archived and can not be replied to any more.

Printer friendly format

Similar topics:More similar topics...
LSU Charter 767 Gets Stuck In The Mud posted Tue Dec 27 2005 03:45:27 by MSYtristar
Stuck In The Mud! posted Tue May 29 2001 04:49:18 by N312RC
Cameroon Airlines'747 With Nose In The Mud At CDG posted Mon Nov 6 2000 17:10:34 by Varig md-11
Biggest Plane In The World At RDU-now? posted Fri Oct 27 2006 23:41:05 by Fbm3rd
Daddy Longlegs In The Window At FL370 (Photo) posted Tue Oct 24 2006 21:45:48 by SimProgrammer
Delta Jet Gets Stuck In Mississippi Mud. posted Fri Aug 11 2006 11:05:08 by Aeroplan73
Astreus A/c In The Circuit At EMA Last Night? posted Wed May 24 2006 03:34:48 by RobK
How Many In The Sky At Once? posted Thu Apr 6 2006 15:54:27 by Chuffy
No Power This Hour In The Tower At FLL posted Wed Nov 2 2005 01:41:17 by OPNLguy
Boeing 737-200 Ban In The UK At The End Of 2005 posted Wed May 18 2005 17:25:40 by SignalOne